Time;durP1;ratioP1;P1;durP2;ratioP2;P2;SDS_P1;SDS_P2;PMS_P1;PMS_P2;Temp;Humidity;BMP_temperature;BMP_pressure;BME280_temperature;BME280_humidity;BME280_pressure;Samples;Min_cycle;Max_cycle;Signal;HPM_P1;HPM_P2
2023/05/16 03:00:29;;;;;;;12.75;2.10;;;7.10;99.90;;;;;;5924439;23;20029;-78
2023/05/16 03:02:55;;;;;;;10.85;2.22;;;7.10;99.90;;;;;;4975809;28;20039;-78
2023/05/16 03:05:21;;;;;;;12.60;2.13;;;7.10;99.90;;;;;;4976433;28;20118;-78
2023/05/16 03:07:47;;;;;;;13.52;2.70;;;7.00;99.90;;;;;;4974905;28;20089;-76
2023/05/16 03:10:12;;;;;;;15.57;2.35;;;7.00;99.90;;;;;;4974703;28;20043;-76
2023/05/16 03:12:38;;;;;;;16.67;2.10;;;7.00;99.90;;;;;;4976740;28;20039;-78
2023/05/16 03:15:04;;;;;;;16.08;2.47;;;7.10;99.90;;;;;;4974713;28;20401;-78
2023/05/16 03:17:30;;;;;;;12.90;2.80;;;7.10;99.90;;;;;;4974858;28;20092;-79
2023/05/16 03:19:56;;;;;;;9.32;1.80;;;7.00;99.90;;;;;;4974727;28;20478;-78
2023/05/16 03:22:21;;;;;;;10.80;2.20;;;7.00;99.90;;;;;;4974392;28;20483;-77
2023/05/16 03:24:47;;;;;;;10.73;2.03;;;7.00;99.90;;;;;;4975861;28;20049;-78
2023/05/16 03:27:13;;;;;;;12.73;2.25;;;7.00;99.90;;;;;;4974525;28;20073;-78
2023/05/16 03:29:38;;;;;;;17.02;2.22;;;7.00;99.90;;;;;;4974455;28;20039;-77
2023/05/16 03:32:04;;;;;;;13.75;2.05;;;7.10;99.90;;;;;;4958151;28;20069;-78
2023/05/16 03:34:30;;;;;;;14.57;2.28;;;7.00;99.90;;;;;;4976006;28;20434;-78
2023/05/16 03:36:56;;;;;;;14.45;2.08;;;7.10;99.90;;;;;;4974294;28;20043;-78
2023/05/16 03:39:22;;;;;;;9.38;1.58;;;7.00;99.90;;;;;;4973287;28;20046;-78
2023/05/16 03:41:47;;;;;;;13.38;2.40;;;7.10;99.90;;;;;;4975175;28;20066;-77
2023/05/16 03:44:13;;;;;;;13.82;3.05;;;7.10;99.90;;;;;;4974232;28;20068;-78
2023/05/16 03:46:39;;;;;;;11.70;2.40;;;7.10;99.90;;;;;;4973960;28;20097;-77
2023/05/16 03:49:05;;;;;;;13.00;1.90;;;7.10;99.90;;;;;;4973802;28;20066;-77
2023/05/16 03:51:30;;;;;;;9.25;1.90;;;7.10;99.90;;;;;;4973789;28;20074;-78
2023/05/16 03:53:56;;;;;;;12.98;2.72;;;7.10;99.90;;;;;;4973982;28;20034;-77
2023/05/16 03:56:22;;;;;;;11.25;2.35;;;7.10;99.90;;;;;;4974101;28;20504;-78
2023/05/16 03:58:48;;;;;;;12.85;3.10;;;7.10;99.90;;;;;;4973787;28;20126;-77
2023/05/16 04:01:14;;;;;;;13.63;2.08;;;7.10;99.90;;;;;;4973570;28;20054;-77
2023/05/16 04:03:39;;;;;;;15.23;2.17;;;7.10;99.90;;;;;;4975204;28;20034;-76
2023/05/16 04:06:06;;;;;;;13.07;2.22;;;7.10;99.90;;;;;;4975564;28;20445;-77
2023/05/16 04:08:31;;;;;;;20.35;3.47;;;7.00;99.90;;;;;;4974380;28;20085;-78
2023/05/16 04:10:57;;;;;;;13.75;2.00;;;7.00;99.90;;;;;;4974286;28;20125;-77
2023/05/16 04:13:23;;;;;;;12.80;2.55;;;7.00;99.90;;;;;;4974393;28;20054;-78
2023/05/16 04:15:49;;;;;;;9.93;2.55;;;7.00;99.90;;;;;;4974221;28;20540;-78
2023/05/16 04:18:14;;;;;;;10.73;2.10;;;6.90;99.90;;;;;;4974354;28;20050;-76
2023/05/16 04:20:43;;;;;;;9.20;2.20;;;6.90;99.90;;;;;;4974062;28;20359;-77
2023/05/16 04:23:12;;;;;;;10.75;2.08;;;6.90;99.90;;;;;;4973916;28;20049;-76
2023/05/16 04:25:38;;;;;;;15.55;1.88;;;7.00;99.90;;;;;;4973634;28;20045;-77
2023/05/16 04:28:04;;;;;;;11.02;1.90;;;7.00;99.90;;;;;;4974001;28;20051;-77
2023/05/16 04:30:30;;;;;;;14.95;2.42;;;7.00;99.90;;;;;;4975446;28;20097;-77
2023/05/16 04:32:58;;;;;;;17.02;2.08;;;7.00;99.90;;;;;;4958026;28;20046;-78
2023/05/16 04:35:24;;;;;;;10.80;2.28;;;7.00;99.90;;;;;;4975478;28;20054;-76
2023/05/16 04:37:50;;;;;;;13.75;1.88;;;7.00;99.90;;;;;;4973623;28;20498;-78
2023/05/16 04:40:16;;;;;;;16.95;2.90;;;7.10;99.90;;;;;;4973291;28;20043;-76
2023/05/16 04:42:41;;;;;;;9.77;1.75;;;7.10;99.90;;;;;;4973881;28;20141;-78
2023/05/16 04:45:09;;;;;;;10.05;2.42;;;7.10;99.90;;;;;;4975079;28;20106;-78
2023/05/16 04:47:35;;;;;;;10.95;2.05;;;7.10;99.90;;;;;;4974142;28;20089;-77
2023/05/16 04:50:01;;;;;;;14.70;2.10;;;7.20;99.90;;;;;;4973251;28;20430;-77
2023/05/16 04:52:27;;;;;;;12.00;1.90;;;7.20;99.90;;;;;;4973270;28;20170;-77
2023/05/16 04:54:53;;;;;;;8.60;2.17;;;7.10;99.90;;;;;;4974239;28;20126;-78
2023/05/16 04:57:18;;;;;;;10.88;1.80;;;7.10;99.90;;;;;;4973883;28;20398;-77
2023/05/16 04:59:44;;;;;;;11.63;2.72;;;7.20;99.90;;;;;;4973790;28;20043;-77
2023/05/16 05:02:11;;;;;;;14.77;2.80;;;7.20;99.90;;;;;;4973444;28;20070;-78
2023/05/16 05:04:36;;;;;;;12.43;2.35;;;7.20;99.90;;;;;;4973571;28;20451;-78
2023/05/16 05:07:02;;;;;;;12.75;2.05;;;7.30;99.90;;;;;;4973862;28;20030;-77
2023/05/16 05:09:28;;;;;;;14.10;2.50;;;7.30;99.90;;;;;;4973355;28;20043;-78
2023/05/16 05:11:53;;;;;;;18.20;3.65;;;7.30;99.90;;;;;;4973762;28;20168;-78
2023/05/16 05:14:19;;;;;;;15.63;3.10;;;7.40;99.90;;;;;;4973271;28;20045;-78
2023/05/16 05:16:44;;;;;;;12.57;2.58;;;7.40;99.90;;;;;;4973721;28;20054;-78
2023/05/16 05:19:10;;;;;;;10.50;2.55;;;7.50;99.90;;;;;;4973900;28;20045;-78
2023/05/16 05:21:36;;;;;;;14.93;2.88;;;7.50;99.90;;;;;;4973664;28;20047;-78
2023/05/16 05:24:03;;;;;;;15.00;2.90;;;7.60;99.90;;;;;;4974955;28;20043;-77
2023/05/16 05:26:28;;;;;;;10.05;2.95;;;7.60;99.90;;;;;;4957209;28;20042;-78
2023/05/16 05:28:54;;;;;;;14.38;2.38;;;7.70;99.90;;;;;;4957535;28;20399;-79
2023/05/16 05:31:20;;;;;;;10.73;2.70;;;7.80;99.90;;;;;;4973569;28;20035;-78
2023/05/16 05:33:45;;;;;;;12.48;2.35;;;7.80;99.90;;;;;;4974903;28;20039;-77
2023/05/16 05:36:11;;;;;;;20.63;3.55;;;7.90;99.90;;;;;;4973356;28;20074;-79
2023/05/16 05:38:37;;;;;;;10.00;2.38;;;7.90;99.90;;;;;;4957848;28;20039;-78
2023/05/16 05:41:03;;;;;;;9.93;2.50;;;8.00;99.90;;;;;;4973210;28;20047;-79
2023/05/16 05:43:29;;;;;;;11.02;2.05;;;8.10;99.90;;;;;;4973594;28;20046;-78
2023/05/16 05:45:55;;;;;;;12.07;2.13;;;8.10;99.90;;;;;;4973605;28;20042;-78
2023/05/16 05:48:21;;;;;;;15.50;2.58;;;8.30;99.90;;;;;;4973642;28;20042;-76
2023/05/16 05:50:46;;;;;;;12.00;2.17;;;8.30;99.90;;;;;;4973457;28;20047;-78
2023/05/16 05:53:12;;;;;;;9.90;2.35;;;8.40;99.90;;;;;;4973909;28;20046;-76
2023/05/16 05:55:40;;;;;;;11.18;2.70;;;8.50;99.90;;;;;;4973341;28;20332;-78
2023/05/16 05:58:06;;;;;;;7.50;1.65;;;8.60;99.90;;;;;;4973309;28;20102;-77
2023/05/16 06:00:31;;;;;;;13.20;2.35;;;8.70;99.90;;;;;;4974156;28;20047;-78
2023/05/16 06:02:57;;;;;;;12.05;2.15;;;8.70;99.90;;;;;;4974914;28;20077;-77
2023/05/16 06:05:23;;;;;;;10.85;1.92;;;8.80;99.90;;;;;;4960136;28;20043;-77
2023/05/16 06:07:48;;;;;;;13.45;1.92;;;8.90;99.90;;;;;;4959993;28;20054;-77
2023/05/16 06:10:14;;;;;;;12.65;2.72;;;9.00;99.90;;;;;;4975881;28;20049;-77
2023/05/16 06:12:40;;;;;;;10.65;2.63;;;9.10;99.90;;;;;;4975702;28;20093;-78
2023/05/16 06:15:06;;;;;;;7.53;1.50;;;9.10;99.90;;;;;;4977399;28;20122;-78
2023/05/16 06:17:32;;;;;;;9.30;2.20;;;9.20;99.90;;;;;;4975763;28;20062;-77
2023/05/16 06:19:57;;;;;;;9.30;1.90;;;9.20;99.90;;;;;;4975679;28;20050;-77
2023/05/16 06:22:23;;;;;;;13.70;2.33;;;9.30;99.90;;;;;;4975809;28;20380;-77
2023/05/16 06:24:49;;;;;;;12.95;1.92;;;9.30;99.90;;;;;;4975690;28;20047;-79
2023/05/16 06:27:14;;;;;;;11.05;1.55;;;9.40;99.90;;;;;;4975658;28;20043;-76
2023/05/16 06:29:40;;;;;;;9.07;1.95;;;9.40;99.90;;;;;;4976860;28;20042;-78
2023/05/16 06:32:06;;;;;;;12.73;1.60;;;9.50;99.90;;;;;;4975879;28;20078;-76
2023/05/16 06:34:32;;;;;;;9.80;1.80;;;9.60;99.90;;;;;;4976563;28;20054;-76
2023/05/16 06:36:58;;;;;;;9.48;1.42;;;9.60;99.90;;;;;;4976473;28;20043;-77
2023/05/16 06:39:24;;;;;;;11.05;1.63;;;9.60;99.90;;;;;;4960172;28;20101;-81
2023/05/16 06:41:50;;;;;;;14.10;2.45;;;9.70;99.90;;;;;;4977710;28;20496;-76
2023/05/16 06:44:16;;;;;;;6.07;1.80;;;9.70;99.90;;;;;;4977587;28;20045;-77
2023/05/16 06:46:42;;;;;;;12.93;1.80;;;9.70;99.90;;;;;;4976637;28;20062;-80
2023/05/16 06:49:07;;;;;;;8.82;1.88;;;9.80;99.90;;;;;;4977644;28;20390;-81
2023/05/16 06:51:33;;;;;;;13.75;1.88;;;9.80;99.90;;;;;;4976152;28;20054;-76
2023/05/16 06:53:59;;;;;;;6.93;1.20;;;9.90;99.90;;;;;;4976259;28;20042;-78
2023/05/16 06:56:24;;;;;;;8.68;2.40;;;9.90;99.90;;;;;;4976881;28;20057;-77
2023/05/16 06:58:50;;;;;;;10.50;1.70;;;10.00;99.90;;;;;;4976639;28;20049;-78
2023/05/16 07:01:16;;;;;;;9.10;1.63;;;10.10;99.90;;;;;;4976323;28;20110;-78
2023/05/16 07:03:41;;;;;;;9.35;0.98;;;10.20;99.90;;;;;;4975945;28;20038;-78
2023/05/16 07:06:07;;;;;;;5.57;0.95;;;10.20;99.90;;;;;;4975859;28;20049;-77
2023/05/16 07:08:35;;;;;;;11.40;2.15;;;10.20;99.90;;;;;;4975677;28;20049;-77
2023/05/16 07:11:01;;;;;;;5.75;1.15;;;10.30;99.90;;;;;;4959973;28;20454;-80
2023/05/16 07:13:27;;;;;;;9.68;1.30;;;10.20;99.90;;;;;;4975300;28;20074;-79
2023/05/16 07:15:53;;;;;;;8.77;1.55;;;10.20;99.90;;;;;;4975543;28;20122;-80
2023/05/16 07:18:18;;;;;;;6.97;1.05;;;10.20;99.90;;;;;;4976665;28;20043;-76
2023/05/16 07:20:44;;;;;;;6.85;1.17;;;10.20;99.90;;;;;;4975306;28;20039;-79
2023/05/16 07:23:10;;;;;;;14.27;1.67;;;10.20;99.90;;;;;;4976928;28;20126;-77
2023/05/16 07:25:36;;;;;;;12.77;1.55;;;10.30;99.90;;;;;;4975305;28;20078;-80
2023/05/16 07:28:02;;;;;;;7.35;1.20;;;10.30;99.90;;;;;;4975361;28;20082;-78
2023/05/16 07:30:28;;;;;;;5.90;1.10;;;10.40;99.90;;;;;;4976712;28;20457;-78
2023/05/16 07:32:54;;;;;;;11.02;1.30;;;10.50;99.90;;;;;;4975544;28;20129;-80
2023/05/16 07:35:20;;;;;;;8.98;1.50;;;10.60;99.90;;;;;;4976680;28;20114;-80
2023/05/16 07:37:46;;;;;;;8.80;1.08;;;10.70;99.90;;;;;;4975576;28;20047;-78
2023/05/16 07:40:12;;;;;;;8.90;1.27;;;10.80;99.90;;;;;;4974927;28;20046;-79
2023/05/16 07:42:38;;;;;;;8.48;1.27;;;11.00;99.90;;;;;;4975188;28;20073;-75
2023/05/16 07:45:05;;;;;;;9.45;1.52;;;11.10;99.90;;;;;;4977155;28;20368;-76
2023/05/16 07:47:31;;;;;;;6.60;1.30;;;11.10;99.90;;;;;;4979732;28;20074;-75
2023/05/16 07:49:57;;;;;;;11.48;1.70;;;11.10;99.90;;;;;;4980401;28;20058;-75
2023/05/16 07:52:22;;;;;;;6.82;1.20;;;10.90;99.90;;;;;;4981483;28;20042;-75
2023/05/16 07:54:48;;;;;;;7.82;1.20;;;10.80;99.90;;;;;;4978095;28;20134;-76
2023/05/16 07:57:14;;;;;;;5.75;1.08;;;10.80;99.90;;;;;;4975983;28;20047;-76
2023/05/16 07:59:40;;;;;;;6.68;1.90;;;10.90;99.90;;;;;;4976246;28;20117;-78
2023/05/16 08:02:06;;;;;;;8.20;1.10;;;11.00;99.90;;;;;;4974567;28;20051;-76
2023/05/16 08:04:31;;;;;;;10.18;1.20;;;11.10;99.90;;;;;;4957614;28;20049;-75
2023/05/16 08:06:57;;;;;;;9.70;1.50;;;11.30;99.90;;;;;;4975567;28;20424;-77
2023/05/16 08:09:23;;;;;;;9.10;1.70;;;11.40;99.90;;;;;;4975685;28;20039;-75
2023/05/16 08:11:48;;;;;;;12.07;1.40;;;11.50;99.90;;;;;;4975273;28;20098;-75
2023/05/16 08:14:14;;;;;;;8.10;1.00;;;11.60;99.90;;;;;;4973707;28;20046;-77
2023/05/16 08:16:40;;;;;;;7.68;1.60;;;11.70;99.90;;;;;;4975229;28;20082;-75
2023/05/16 08:19:06;;;;;;;9.35;1.55;;;11.70;99.90;;;;;;4975892;28;20395;-76
2023/05/16 08:21:31;;;;;;;5.70;1.05;;;11.70;99.90;;;;;;4975334;28;20372;-76
2023/05/16 08:23:57;;;;;;;7.05;1.23;;;11.50;99.90;;;;;;4973991;28;20038;-77
2023/05/16 08:26:23;;;;;;;6.32;1.50;;;11.40;99.90;;;;;;4973098;28;20125;-77
2023/05/16 08:28:49;;;;;;;9.75;1.45;;;11.30;99.90;;;;;;4974945;28;20074;-76
2023/05/16 08:31:15;;;;;;;4.90;1.58;;;11.30;99.90;;;;;;4974166;28;20050;-76
2023/05/16 08:33:41;;;;;;;9.25;1.13;;;11.40;99.90;;;;;;4973969;28;20047;-77
2023/05/16 08:36:08;;;;;;;4.82;1.10;;;11.50;99.90;;;;;;4975560;28;20042;-77
2023/05/16 08:38:34;;;;;;;5.07;0.80;;;11.60;99.90;;;;;;4973920;28;20054;-77
2023/05/16 08:41:00;;;;;;;6.35;1.20;;;11.60;99.90;;;;;;4973851;28;20049;-76
2023/05/16 08:43:26;;;;;;;8.30;1.10;;;11.70;99.90;;;;;;4975166;28;20450;-79
2023/05/16 08:45:51;;;;;;;13.13;1.50;;;11.80;99.90;;;;;;4957608;28;20050;-77
2023/05/16 08:48:21;;;;;;;5.32;1.45;;;11.90;99.90;;;;;;4975173;28;20155;-76
2023/05/16 08:50:47;;;;;;;8.98;1.50;;;12.10;99.90;;;;;;4975289;28;20047;-76
2023/05/16 08:53:16;;;;;;;6.20;1.67;;;12.20;99.90;;;;;;4974172;28;20084;-77
2023/05/16 08:55:44;;;;;;;5.97;1.13;;;12.30;99.90;;;;;;4975124;28;20380;-75
2023/05/16 08:58:11;;;;;;;9.07;1.25;;;12.40;99.90;;;;;;4975483;28;20061;-75
2023/05/16 09:00:38;;;;;;;9.43;1.48;;;12.40;99.90;;;;;;4973367;28;20039;-75
2023/05/16 09:03:05;;;;;;;6.82;1.38;;;12.50;99.90;;;;;;4973723;28;20039;-76
2023/05/16 09:05:30;;;;;;;11.38;1.20;;;12.50;99.90;;;;;;4957786;28;20051;-76
2023/05/16 09:07:56;;;;;;;9.80;1.50;;;12.60;99.90;;;;;;4973844;28;20042;-77
2023/05/16 09:10:22;;;;;;;11.65;2.20;;;12.90;99.90;;;;;;4974345;28;20126;-72
2023/05/16 09:12:47;;;;;;;9.38;1.77;;;13.00;99.90;;;;;;4975217;28;20098;-77
2023/05/16 09:15:13;;;;;;;6.05;1.00;;;13.00;99.90;;;;;;4975223;28;20097;-74
2023/05/16 09:17:43;;;;;;;14.25;1.92;;;12.90;99.90;;;;;;4957561;28;20039;-76
2023/05/16 09:20:13;;;;;;;7.18;1.25;;;12.70;99.90;;;;;;4974848;28;20047;-76
2023/05/16 09:22:40;;;;;;;7.18;1.50;;;12.60;99.90;;;;;;4973879;28;20049;-76
2023/05/16 09:25:06;;;;;;;15.38;2.38;;;12.50;99.90;;;;;;4975575;28;20051;-79
2023/05/16 09:27:32;;;;;;;13.68;1.48;;;12.70;99.90;;;;;;4975492;28;20118;-77
2023/05/16 09:29:59;;;;;;;6.30;1.02;;;12.90;99.90;;;;;;4973602;28;20046;-77
2023/05/16 09:32:25;;;;;;;9.18;1.50;;;13.00;99.90;;;;;;4974304;28;20521;-77
2023/05/16 09:34:53;;;;;;;7.18;1.40;;;13.50;99.90;;;;;;4973914;28;20082;-77
2023/05/16 09:37:19;;;;;;;8.95;1.63;;;13.70;99.90;;;;;;4976322;28;20054;-77
2023/05/16 09:39:47;;;;;;;9.88;1.73;;;13.70;99.90;;;;;;4978253;28;20403;-78
2023/05/16 09:42:14;;;;;;;6.88;1.13;;;14.00;99.90;;;;;;4961273;28;20094;-74
2023/05/16 09:44:44;;;;;;;5.45;0.95;;;13.70;99.90;;;;;;4976999;28;20042;-76
2023/05/16 09:47:12;;;;;;;8.70;1.73;;;13.80;99.90;;;;;;4976573;28;20043;-76
2023/05/16 09:49:38;;;;;;;8.07;1.17;;;14.00;99.90;;;;;;4977855;28;20128;-75
2023/05/16 09:52:04;;;;;;;8.85;1.30;;;14.20;99.90;;;;;;4976142;28;20120;-75
2023/05/16 09:54:31;;;;;;;11.70;1.45;;;14.40;99.90;;;;;;4977749;28;20038;-78
2023/05/16 09:56:57;;;;;;;7.75;1.40;;;14.50;99.90;;;;;;4977654;28;20035;-76
2023/05/16 09:59:23;;;;;;;5.43;1.27;;;14.40;99.90;;;;;;4976097;28;20254;-76
2023/05/16 10:01:51;;;;;;;10.98;1.60;;;14.30;99.90;;;;;;4976034;28;20043;-76
2023/05/16 10:04:17;;;;;;;6.72;1.35;;;14.10;99.90;;;;;;4976850;28;20085;-75
2023/05/16 10:06:45;;;;;;;7.07;1.20;;;14.00;99.90;;;;;;4977834;28;20426;-76
2023/05/16 10:09:14;;;;;;;7.95;1.20;;;13.90;99.90;;;;;;4976297;28;20030;-75
2023/05/16 10:11:41;;;;;;;7.05;1.70;;;13.50;99.90;;;;;;4975999;28;20047;-76
2023/05/16 10:14:09;;;;;;;6.78;1.60;;;13.30;99.90;;;;;;4976132;28;20474;-79
2023/05/16 10:16:35;;;;;;;7.55;2.22;;;13.00;99.90;;;;;;4976609;28;20054;-77
2023/05/16 10:19:02;;;;;;;8.02;1.67;;;12.90;99.90;;;;;;4976599;28;20038;-77
2023/05/16 10:21:31;;;;;;;10.18;2.58;;;13.10;99.90;;;;;;4977572;28;20038;-75
2023/05/16 10:24:01;;;;;;;7.47;1.30;;;13.20;99.90;;;;;;4976184;28;20071;-74
2023/05/16 10:26:26;;;;;;;5.95;1.30;;;13.50;99.90;;;;;;4977353;28;20062;-76
2023/05/16 10:28:53;;;;;;;6.32;1.40;;;13.70;99.90;;;;;;4975991;28;20034;-76
2023/05/16 10:31:20;;;;;;;6.40;1.42;;;13.80;99.90;;;;;;4976002;28;20138;-76
2023/05/16 10:33:46;;;;;;;9.05;1.48;;;13.90;99.90;;;;;;4960413;28;20493;-77
2023/05/16 10:36:13;;;;;;;6.78;1.48;;;13.80;99.90;;;;;;4977232;28;20093;-76
2023/05/16 10:38:39;;;;;;;8.05;1.50;;;13.90;99.90;;;;;;4977437;28;20386;-74
2023/05/16 10:41:08;;;;;;;9.48;1.35;;;13.60;99.90;;;;;;4975943;28;20053;-77
2023/05/16 10:43:35;;;;;;;9.68;1.48;;;13.40;99.90;;;;;;4976174;28;20039;-74
2023/05/16 10:46:12;;;;;;;8.70;1.38;;;13.10;99.90;;;;;;4975805;28;20043;-73
2023/05/16 10:48:40;;;;;;;8.07;1.17;;;12.70;99.90;;;;;;4975648;28;20061;-74
2023/05/16 10:51:21;;;;;;;10.60;1.95;;;12.60;99.90;;;;;;4976889;28;20050;-75
2023/05/16 10:53:49;;;;;;;4.55;1.08;;;12.80;99.90;;;;;;4959536;28;20047;-75
2023/05/16 10:56:22;;;;;;;9.10;1.20;;;13.10;99.90;;;;;;4975661;28;20430;-74
2023/05/16 10:58:48;;;;;;;10.15;1.48;;;13.50;99.90;;;;;;4975546;28;20050;-77
2023/05/16 11:01:33;;;;;;;8.45;1.20;;;13.40;99.90;;;;;;4975296;28;20061;-75
2023/05/16 11:04:09;;;;;;;8.20;1.60;;;13.60;99.90;;;;;;4975575;28;20471;-78
2023/05/16 11:06:40;;;;;;;7.97;1.30;;;14.00;99.90;;;;;;4975312;28;20766;-74
2023/05/16 11:09:09;;;;;;;5.78;1.30;;;14.20;99.90;;;;;;4975632;28;20140;-75
2023/05/16 11:11:46;;;;;;;4.43;1.23;;;14.40;99.90;;;;;;4976679;28;20035;-76
2023/05/16 11:14:31;;;;;;;10.35;1.30;;;14.30;99.90;;;;;;4975252;28;20053;-76
2023/05/16 11:17:10;;;;;;;13.98;2.15;;;14.20;99.90;;;;;;4975672;28;20069;-76
2023/05/16 11:19:41;;;;;;;8.57;1.13;;;14.10;99.90;;;;;;4975144;28;20046;-75
2023/05/16 11:22:20;;;;;;;10.45;1.70;;;14.00;99.90;;;;;;4975154;28;20046;-76
2023/05/16 11:24:53;;;;;;;4.35;1.20;;;14.10;99.90;;;;;;4959541;28;20034;-80
2023/05/16 11:27:29;;;;;;;7.55;1.38;;;14.00;99.90;;;;;;4959090;28;20046;-80
2023/05/16 11:30:05;;;;;;;6.97;1.35;;;13.80;99.90;;;;;;4976775;28;20387;-74
2023/05/16 11:32:33;;;;;;;6.32;1.42;;;13.60;99.90;;;;;;4976249;28;20521;-76
2023/05/16 11:35:00;;;;;;;8.70;1.70;;;13.40;99.90;;;;;;4976531;28;20045;-74
2023/05/16 11:37:30;;;;;;;10.55;2.20;;;13.40;99.90;;;;;;4960013;28;20050;-76
2023/05/16 11:40:00;;;;;;;6.28;1.30;;;13.40;99.90;;;;;;4976250;28;20046;-74
2023/05/16 11:42:33;;;;;;;4.47;1.30;;;13.40;99.90;;;;;;4976472;28;20114;-76
2023/05/16 11:45:21;;;;;;;4.20;1.13;;;13.40;99.90;;;;;;4974786;28;20114;-77
2023/05/16 11:47:48;;;;;;;11.02;2.20;;;13.20;99.90;;;;;;4975949;28;20168;-77
2023/05/16 11:50:16;;;;;;;5.97;1.27;;;12.90;99.90;;;;;;4975861;28;20050;-76
2023/05/16 11:52:44;;;;;;;7.18;1.17;;;12.80;99.90;;;;;;4975216;28;20046;-76
2023/05/16 11:55:10;;;;;;;8.32;1.27;;;12.90;99.90;;;;;;4974731;28;20050;-72
2023/05/16 11:57:41;;;;;;;11.65;1.40;;;12.70;99.90;;;;;;4975201;28;20046;-74
2023/05/16 12:00:18;;;;;;;6.78;1.55;;;12.60;99.90;;;;;;4973582;28;20050;-73
2023/05/16 12:02:48;;;;;;;8.98;1.52;;;12.80;99.90;;;;;;4975868;28;20077;-76
2023/05/16 12:05:15;;;;;;;3.33;1.20;;;13.10;99.90;;;;;;4974569;28;20054;-78
2023/05/16 12:07:45;;;;;;;6.97;1.70;;;13.40;99.90;;;;;;4975985;28;20039;-77
2023/05/16 12:10:15;;;;;;;5.55;1.23;;;13.70;99.90;;;;;;4975077;28;20076;-74
2023/05/16 12:12:47;;;;;;;5.25;1.90;;;13.70;99.90;;;;;;4958046;28;20054;-78
2023/05/16 12:15:13;;;;;;;7.72;2.33;;;14.00;99.90;;;;;;4975504;28;20516;-76
2023/05/16 12:17:40;;;;;;;5.40;1.40;;;14.20;99.90;;;;;;4974297;28;20079;-77
2023/05/16 12:20:13;;;;;;;5.40;2.10;;;14.00;99.90;;;;;;4975279;28;20134;-78
2023/05/16 12:22:43;;;;;;;10.07;1.85;;;13.80;99.90;;;;;;4975914;28;20042;-76
2023/05/16 12:25:24;;;;;;;8.50;1.75;;;13.60;99.90;;;;;;4973844;28;20042;-79
2023/05/16 12:28:07;;;;;;;3.58;1.55;;;13.60;99.90;;;;;;4974919;28;20430;-73
2023/05/16 12:30:32;;;;;;;7.18;1.95;;;14.00;99.90;;;;;;4940955;28;20055;-77
2023/05/16 12:33:07;;;;;;;6.07;1.92;;;13.90;99.90;;;;;;4973945;28;20523;-76
2023/05/16 12:35:33;;;;;;;6.70;2.20;;;13.90;99.90;;;;;;4975445;28;20070;-75
2023/05/16 12:38:02;;;;;;;12.25;3.25;;;13.80;99.90;;;;;;4975032;28;20046;-74
2023/05/16 12:40:28;;;;;;;7.28;2.88;;;13.70;99.90;;;;;;4975042;28;20043;-76
2023/05/16 12:42:54;;;;;;;7.40;1.85;;;13.70;99.90;;;;;;4973701;28;20520;-75
2023/05/16 12:45:21;;;;;;;6.80;1.90;;;13.90;99.90;;;;;;4974945;28;20122;-76
2023/05/16 12:47:47;;;;;;;4.97;1.80;;;14.10;99.90;;;;;;4975027;28;20073;-76
2023/05/16 12:50:15;;;;;;;9.02;2.58;;;14.30;99.90;;;;;;4975073;28;20065;-73
2023/05/16 12:52:51;;;;;;;6.82;2.10;;;14.60;99.90;;;;;;4973894;28;20050;-75
2023/05/16 12:55:18;;;;;;;10.13;2.58;;;14.90;99.90;;;;;;4974187;28;20386;-76
2023/05/16 12:57:46;;;;;;;6.82;1.98;;;15.20;99.90;;;;;;4973549;28;20078;-75
2023/05/16 13:00:13;;;;;;;5.68;1.83;;;14.90;99.90;;;;;;4974591;28;20102;-75
2023/05/16 13:02:39;;;;;;;5.88;1.83;;;14.80;99.90;;;;;;4973228;28;20091;-78
2023/05/16 13:05:09;;;;;;;8.18;2.40;;;14.50;99.90;;;;;;4973511;28;20034;-74
2023/05/16 13:07:35;;;;;;;8.80;2.83;;;14.50;99.90;;;;;;4973212;28;20050;-75
2023/05/16 13:10:01;;;;;;;6.63;2.25;;;14.40;99.90;;;;;;4975504;28;20046;-73
2023/05/16 13:12:27;;;;;;;8.00;3.03;;;14.50;99.90;;;;;;4972999;28;20464;-72
2023/05/16 13:14:53;;;;;;;8.35;2.70;;;14.60;99.90;;;;;;4974816;28;20046;-74
2023/05/16 13:17:18;;;;;;;7.07;2.85;;;14.60;99.90;;;;;;4974607;28;20389;-76
2023/05/16 13:19:44;;;;;;;9.38;2.85;;;14.30;99.90;;;;;;4974739;28;20515;-74
2023/05/16 13:22:10;;;;;;;5.32;2.28;;;14.20;99.90;;;;;;4957151;28;20446;-76
2023/05/16 13:24:35;;;;;;;9.18;2.85;;;14.20;99.90;;;;;;4973111;28;20039;-73
2023/05/16 13:27:01;;;;;;;8.00;2.00;;;14.20;99.90;;;;;;4973075;28;20046;-76
2023/05/16 13:29:28;;;;;;;7.40;1.90;;;14.40;99.90;;;;;;4974519;28;20042;-76
2023/05/16 13:31:53;;;;;;;6.35;2.28;;;14.60;99.90;;;;;;4974695;28;20047;-74
2023/05/16 13:34:19;;;;;;;7.18;1.80;;;14.60;99.90;;;;;;4973285;28;20053;-74
2023/05/16 13:36:46;;;;;;;11.18;2.60;;;14.40;99.90;;;;;;4973304;28;20077;-74
2023/05/16 13:39:12;;;;;;;10.82;2.83;;;14.10;99.90;;;;;;4974760;28;20031;-75
2023/05/16 13:41:39;;;;;;;8.07;2.47;;;13.80;99.90;;;;;;4957297;28;20364;-76
2023/05/16 13:44:05;;;;;;;10.13;2.50;;;13.60;99.90;;;;;;4973201;28;20042;-74
2023/05/16 13:46:31;;;;;;;10.65;2.40;;;13.50;99.90;;;;;;4974711;28;20050;-77
2023/05/16 13:48:56;;;;;;;10.50;3.30;;;13.40;99.90;;;;;;4972882;28;20043;-75
2023/05/16 13:51:22;;;;;;;10.52;2.88;;;13.40;99.90;;;;;;4974619;28;20035;-75
2023/05/16 13:53:48;;;;;;;11.90;2.65;;;13.40;99.90;;;;;;4974788;28;20082;-77
2023/05/16 13:56:14;;;;;;;11.15;2.70;;;13.30;99.90;;;;;;4973085;28;20380;-76
2023/05/16 13:58:40;;;;;;;9.82;2.92;;;13.40;99.90;;;;;;4974348;28;20054;-75
2023/05/16 14:01:06;;;;;;;9.63;2.72;;;13.80;99.90;;;;;;4974026;28;20417;-75
2023/05/16 14:03:31;;;;;;;6.60;2.10;;;14.30;99.90;;;;;;4974518;28;20041;-77
2023/05/16 14:05:57;;;;;;;14.88;2.65;;;14.50;99.90;;;;;;4956960;28;20137;-74
2023/05/16 14:08:23;;;;;;;7.50;2.63;;;14.90;99.90;;;;;;4972807;28;20035;-79
2023/05/16 14:10:48;;;;;;;8.80;3.90;;;15.20;99.90;;;;;;4974414;28;20069;-76
2023/05/16 14:13:14;;;;;;;9.35;3.55;;;15.00;99.90;;;;;;4972820;28;20399;-75
2023/05/16 14:15:40;;;;;;;9.40;3.47;;;14.80;99.90;;;;;;4972498;28;20058;-73
2023/05/16 14:18:06;;;;;;;9.55;3.42;;;14.70;99.90;;;;;;4972626;28;20139;-75
2023/05/16 14:20:31;;;;;;;6.68;3.22;;;14.60;99.90;;;;;;4973798;28;20459;-76
2023/05/16 14:22:57;;;;;;;11.95;3.85;;;14.50;99.90;;;;;;4973805;28;20074;-74
2023/05/16 14:25:23;;;;;;;9.63;4.03;;;14.40;99.90;;;;;;4976951;28;20476;-75
2023/05/16 14:27:49;;;;;;;13.52;3.90;;;14.20;99.90;;;;;;4976971;28;20035;-74
2023/05/16 14:30:16;;;;;;;9.40;3.22;;;14.10;99.90;;;;;;4976976;28;20053;-73
2023/05/16 14:32:41;;;;;;;7.45;3.30;;;14.00;99.90;;;;;;4981499;28;20035;-73
2023/05/16 14:35:11;;;;;;;9.25;3.08;;;13.90;99.90;;;;;;4981103;28;20043;-73
2023/05/16 14:37:36;;;;;;;6.22;2.90;;;13.90;99.90;;;;;;4979865;28;20049;-75
2023/05/16 14:40:04;;;;;;;10.43;3.28;;;13.70;99.90;;;;;;4975714;28;20129;-74
2023/05/16 14:42:30;;;;;;;10.73;3.20;;;13.70;99.90;;;;;;4977049;28;20070;-74
2023/05/16 14:44:55;;;;;;;9.07;3.08;;;13.70;99.90;;;;;;4976954;28;20090;-74
2023/05/16 14:47:22;;;;;;;6.55;2.70;;;13.60;99.90;;;;;;4976830;28;20070;-75
2023/05/16 14:49:47;;;;;;;6.80;2.72;;;13.70;99.90;;;;;;4975457;28;20053;-74
2023/05/16 14:52:13;;;;;;;9.18;2.30;;;13.70;99.90;;;;;;4975527;28;20277;-76
2023/05/16 14:54:38;;;;;;;8.25;2.63;;;13.50;99.90;;;;;;4976933;28;20472;-73
2023/05/16 14:57:04;;;;;;;6.00;2.20;;;13.50;99.90;;;;;;4975138;28;20126;-73
2023/05/16 14:59:30;;;;;;;7.78;2.55;;;13.50;99.90;;;;;;4975053;28;20130;-74
2023/05/16 15:01:56;;;;;;;7.57;2.75;;;13.50;99.90;;;;;;4975174;28;20042;-74
2023/05/16 15:04:21;;;;;;;8.00;3.05;;;13.60;99.90;;;;;;4974916;28;20046;-74
2023/05/16 15:06:47;;;;;;;9.55;3.30;;;13.50;99.90;;;;;;4975124;28;20042;-75
2023/05/16 15:09:13;;;;;;;7.88;3.00;;;13.50;99.90;;;;;;4974843;28;20129;-74
2023/05/16 15:11:38;;;;;;;8.18;2.40;;;13.50;99.90;;;;;;4976192;28;20166;-74
2023/05/16 15:14:05;;;;;;;12.88;3.60;;;13.50;99.90;;;;;;4976388;28;20490;-75
2023/05/16 15:16:31;;;;;;;6.85;3.08;;;13.40;99.90;;;;;;4976104;28;20035;-75
2023/05/16 15:18:57;;;;;;;9.88;3.30;;;13.40;99.90;;;;;;4974883;28;20045;-76
2023/05/16 15:21:22;;;;;;;14.18;5.70;;;13.30;99.90;;;;;;4975008;28;20126;-75
2023/05/16 15:23:48;;;;;;;19.38;8.23;;;13.30;99.90;;;;;;4974595;28;20086;-74
2023/05/16 15:26:16;;;;;;;9.38;2.85;;;13.30;99.90;;;;;;4974842;28;20046;-75
2023/05/16 15:28:41;;;;;;;7.15;2.90;;;13.20;99.90;;;;;;4974731;28;20380;-73
2023/05/16 15:31:07;;;;;;;6.65;2.35;;;13.20;99.90;;;;;;4974411;28;20070;-75
2023/05/16 15:33:33;;;;;;;8.35;2.30;;;13.10;99.90;;;;;;4974347;28;20097;-74
2023/05/16 15:35:59;;;;;;;5.70;1.85;;;13.00;99.90;;;;;;4975528;28;20117;-75
2023/05/16 15:38:24;;;;;;;5.75;1.77;;;13.00;99.90;;;;;;4974290;28;20035;-75
2023/05/16 15:40:51;;;;;;;6.90;2.05;;;13.00;99.90;;;;;;4975136;28;20368;-74
2023/05/16 15:43:16;;;;;;;5.72;1.70;;;13.00;99.90;;;;;;4975753;28;20046;-74